ROMMA est une association bénévole à but non lucratif. Votre soutien est indispensable : ADHERER à ROMMA ou FAIRE un DON

Granges-lès-Beaumont - (26, Drôme)

Drôme des Collines (155 m)   Longitude: 04°58'E   Latitude: 45°03'N Station partenaire n°123
 

Détail journalier du     <<     >>

Température Precipitation Humidité Pression Vent Dir Rafale Dir. rafale Ensol.
Heure (°C) (mm) (%) (hPa) (km/h) (km/h) (min)
01:00 8.708810239N19NNO0
02:00 9.0088102311N23NNE0
03:00 8.7088102313NNO23N0
04:00 8.5088102311N23N0
05:00 8.208810239N21NNO0
06:00 8.2088102410N23N0
07:00 8.4088102411N21NNE0
08:00 9.4087102513N27N0
09:00 10.9083102516N35NNO0
10:00 11.8078102519N35NNO20
11:00 12.8073102521NNO42N10
12:00 15.1068102522NNO42N50
13:00 14.8066102527NNO47NNO20
14:00 15.8060102425NNO53NO30
15:00 16.7057102426NNO53NNO50
16:00 12.8071102423N56NNO0
17:00 14.00.267102419N52N20
18:00 15.9050102422NNO50NNO50
19:00 15.2049102323N47NNE30
20:00 13.9050102421N50NNE0
21:00 13.0052102519NNO39N10
22:00 11.8056102517NNO35NNO0
23:00 11.3057102519NNO39NNO0
minuit 10.5061102521NNO42NNO0

Graphique du 12-05-2019

 

Serveur OMMA